ARG1990 SAEZ-SACO
Flight info
| Callsign | ARG1990 |
|---|---|
| Flight time | 1h 7m |
| Altitude | 32000 |
| Route | ATOV3A ATOVO UW5 ASISA ASIS1Q |
| Aircraft | A346/H-SDE2E3FGHIJ3J4J5M1RWXY/LB1D1 |
Departure
| Time | 2026-05-06 18:55 |
|---|---|
| Airport | Ezeiza International Airport - Ministro Pistarini (SAEZ) |
Arrival
| Time | 2026-05-06 20:03 |
|---|---|
| Airport | Ingeniero Aeronáutico Ambrosio L.V. Taravella International Airport (SACO) |
| Time | Latitude | Longitude | Altitude | Speed | Heading |
|---|---|---|---|---|---|
| 2026-05-06 18:23 | -34.81675 | -58.54263 | 83 ft | 0 kts | 13° |
| 2026-05-06 18:44 | -34.81683 | -58.54265 | 88 ft | 0 kts | 13° |
| 2026-05-06 18:44 | -34.81708 | -58.54272 | 87 ft | 0 kts | 13° |
| 2026-05-06 18:44 | -34.81725 | -58.54277 | 85 ft | 0 kts | 13° |
| 2026-05-06 18:45 | -34.81760 | -58.54287 | 86 ft | 0 kts | 13° |
| 2026-05-06 18:45 | -34.81780 | -58.54296 | 85 ft | 0 kts | 37° |
| 2026-05-06 18:45 | -34.81782 | -58.54298 | 85 ft | 0 kts | 42° |
| 2026-05-06 18:50 | -34.81773 | -58.54291 | 84 ft | 2 kts | 19° |
| 2026-05-06 18:50 | -34.81765 | -58.54296 | 85 ft | 1 kts | 310° |
| 2026-05-06 18:50 | -34.81763 | -58.54307 | 85 ft | 2 kts | 272° |
| 2026-05-06 18:51 | -34.81762 | -58.54345 | 85 ft | 7 kts | 272° |
| 2026-05-06 18:51 | -34.81759 | -58.54417 | 84 ft | 10 kts | 272° |
| 2026-05-06 18:51 | -34.81756 | -58.54520 | 85 ft | 14 kts | 272° |
| 2026-05-06 18:51 | -34.81771 | -58.54645 | 86 ft | 17 kts | 256° |
| 2026-05-06 18:52 | -34.81775 | -58.54799 | 86 ft | 20 kts | 282° |
| 2026-05-06 18:52 | -34.81740 | -58.54979 | 83 ft | 23 kts | 283° |
| 2026-05-06 18:52 | -34.81707 | -58.55150 | 86 ft | 15 kts | 282° |
| 2026-05-06 18:52 | -34.81695 | -58.55226 | 86 ft | 10 kts | 279° |
| 2026-05-06 18:53 | -34.81710 | -58.55301 | 88 ft | 11 kts | 233° |
| 2026-05-06 18:53 | -34.81785 | -58.55340 | 87 ft | 14 kts | 175° |
| 2026-05-06 18:53 | -34.81837 | -58.55317 | 88 ft | 2 kts | 155° |
| 2026-05-06 18:53 | -34.81859 | -58.55313 | 87 ft | 5 kts | 179° |
| 2026-05-06 18:54 | -34.81900 | -58.55303 | 86 ft | 7 kts | 144° |
| 2026-05-06 18:54 | -34.81924 | -58.55238 | 87 ft | 10 kts | 102° |
| 2026-05-06 18:54 | -34.81926 | -58.55228 | 85 ft | 0 kts | 102° |
| 2026-05-06 18:54 | -34.81932 | -58.55195 | 85 ft | 24 kts | 102° |
| 2026-05-06 18:55 | -34.82029 | -58.54616 | 83 ft | 110 kts | 101° |
| 2026-05-06 18:55 | -34.82248 | -58.53401 | 89 ft | 174 kts | 101° |
| 2026-05-06 18:55 | -34.82522 | -58.51880 | 652 ft | 187 kts | 99° |
| 2026-05-06 18:55 | -34.82938 | -58.50365 | 1525 ft | 193 kts | 114° |
| 2026-05-06 18:56 | -34.83757 | -58.49049 | 2311 ft | 200 kts | 132° |
| 2026-05-06 18:56 | -34.84801 | -58.47844 | 2811 ft | 211 kts | 127° |
| 2026-05-06 18:56 | -34.85761 | -58.46427 | 3289 ft | 225 kts | 122° |
| 2026-05-06 18:56 | -34.86643 | -58.44789 | 3720 ft | 240 kts | 115° |
| 2026-05-06 18:57 | -34.87506 | -58.42932 | 4156 ft | 261 kts | 114° |
| 2026-05-06 18:57 | -34.88427 | -58.40923 | 4686 ft | 280 kts | 116° |
| 2026-05-06 18:57 | -34.89763 | -58.39096 | 5191 ft | 305 kts | 146° |
| 2026-05-06 18:57 | -34.91795 | -58.38261 | 5933 ft | 311 kts | 181° |
| 2026-05-06 18:58 | -34.93844 | -58.38759 | 6788 ft | 300 kts | 213° |
| 2026-05-06 18:58 | -34.95410 | -58.40344 | 7674 ft | 285 kts | 242° |
| 2026-05-06 18:58 | -34.96460 | -58.42354 | 8587 ft | 283 kts | 248° |
| 2026-05-06 18:58 | -34.97390 | -58.44456 | 9512 ft | 283 kts | 253° |
| 2026-05-06 18:59 | -34.98147 | -58.46687 | 10356 ft | 283 kts | 260° |
| 2026-05-06 18:59 | -34.98509 | -58.49084 | 10882 ft | 289 kts | 275° |
| 2026-05-06 18:59 | -34.98258 | -58.51523 | 11338 ft | 298 kts | 291° |
| 2026-05-06 18:59 | -34.97373 | -58.53851 | 12029 ft | 301 kts | 306° |
| 2026-05-06 19:00 | -34.95973 | -58.55720 | 12923 ft | 302 kts | 321° |
| 2026-05-06 19:00 | -34.94161 | -58.57009 | 13721 ft | 310 kts | 336° |
| 2026-05-06 19:00 | -34.91979 | -58.57591 | 14117 ft | 334 kts | 353° |
| 2026-05-06 19:00 | -34.89568 | -58.57201 | 14398 ft | 365 kts | 12° |
| 2026-05-06 19:01 | -34.87161 | -58.56022 | 14759 ft | 383 kts | 17° |
| 2026-05-06 19:01 | -34.84665 | -58.54812 | 15344 ft | 388 kts | 12° |
| 2026-05-06 19:01 | -34.82028 | -58.54014 | 16120 ft | 385 kts | 4° |
| 2026-05-06 19:01 | -34.79394 | -58.53702 | 16870 ft | 383 kts | 356° |
| 2026-05-06 19:02 | -34.76705 | -58.53753 | 17605 ft | 386 kts | 353° |
| 2026-05-06 19:02 | -34.74017 | -58.53873 | 18255 ft | 391 kts | 352° |
| 2026-05-06 19:02 | -34.71266 | -58.54004 | 18865 ft | 396 kts | 352° |
| 2026-05-06 19:02 | -34.68498 | -58.54133 | 19518 ft | 399 kts | 352° |
| 2026-05-06 19:03 | -34.65738 | -58.54257 | 20169 ft | 403 kts | 352° |
| 2026-05-06 19:03 | -34.62925 | -58.54381 | 20829 ft | 407 kts | 352° |
| 2026-05-06 19:03 | -34.60056 | -58.54505 | 21500 ft | 412 kts | 353° |
| 2026-05-06 19:03 | -34.57189 | -58.54627 | 22145 ft | 416 kts | 353° |
| 2026-05-06 19:04 | -34.54311 | -58.54749 | 22785 ft | 420 kts | 353° |
| 2026-05-06 19:04 | -34.51359 | -58.54873 | 23382 ft | 424 kts | 353° |
| 2026-05-06 19:04 | -34.48373 | -58.54997 | 23894 ft | 429 kts | 353° |
| 2026-05-06 19:04 | -34.45400 | -58.55120 | 24427 ft | 433 kts | 353° |
| 2026-05-06 19:05 | -34.42390 | -58.55244 | 24959 ft | 436 kts | 353° |
| 2026-05-06 19:05 | -34.39327 | -58.55371 | 25494 ft | 440 kts | 352° |
| 2026-05-06 19:05 | -34.36285 | -58.55496 | 26011 ft | 444 kts | 352° |
| 2026-05-06 19:05 | -34.33156 | -58.55625 | 26534 ft | 447 kts | 352° |
| 2026-05-06 19:06 | -34.30060 | -58.55753 | 27044 ft | 451 kts | 352° |
| 2026-05-06 19:06 | -34.26886 | -58.55885 | 27561 ft | 454 kts | 352° |
| 2026-05-06 19:06 | -34.23748 | -58.56062 | 28045 ft | 455 kts | 348° |
| 2026-05-06 19:06 | -34.20719 | -58.56991 | 28598 ft | 444 kts | 333° |
| 2026-05-06 19:07 | -34.18072 | -58.58820 | 29454 ft | 431 kts | 319° |
| 2026-05-06 19:07 | -34.15945 | -58.61305 | 30266 ft | 421 kts | 306° |
| 2026-05-06 19:07 | -34.14418 | -58.64247 | 30923 ft | 416 kts | 294° |
| 2026-05-06 19:07 | -34.13514 | -58.67555 | 31463 ft | 416 kts | 282° |
| 2026-05-06 19:08 | -34.13284 | -58.71048 | 31715 ft | 419 kts | 270° |
| 2026-05-06 19:08 | -34.13766 | -58.74561 | 31720 ft | 424 kts | 258° |
| 2026-05-06 19:08 | -34.14558 | -58.77963 | 31732 ft | 424 kts | 261° |
| 2026-05-06 19:09 | -34.15487 | -58.85000 | 31729 ft | 422 kts | 265° |
| 2026-05-06 19:09 | -34.15632 | -58.92064 | 31729 ft | 418 kts | 277° |
| 2026-05-06 19:10 | -34.14495 | -58.98910 | 31724 ft | 417 kts | 288° |
| 2026-05-06 19:10 | -34.12167 | -59.05353 | 31726 ft | 418 kts | 298° |
| 2026-05-06 19:11 | -34.08777 | -59.11095 | 31720 ft | 420 kts | 306° |
| 2026-05-06 19:11 | -34.05079 | -59.16553 | 31717 ft | 419 kts | 307° |
| 2026-05-06 19:12 | -34.01339 | -59.21962 | 31714 ft | 418 kts | 307° |
| 2026-05-06 19:12 | -33.97595 | -59.27354 | 31711 ft | 418 kts | 307° |
| 2026-05-06 19:13 | -33.93863 | -59.32723 | 31708 ft | 417 kts | 307° |
| 2026-05-06 19:13 | -33.90146 | -59.38064 | 31706 ft | 417 kts | 307° |
| 2026-05-06 19:14 | -33.86427 | -59.43398 | 31702 ft | 417 kts | 307° |
| 2026-05-06 19:14 | -33.82705 | -59.48730 | 31697 ft | 417 kts | 307° |
| 2026-05-06 19:15 | -33.78955 | -59.54093 | 31697 ft | 416 kts | 307° |
| 2026-05-06 19:15 | -33.75228 | -59.59415 | 31691 ft | 416 kts | 307° |
| 2026-05-06 19:16 | -33.71500 | -59.64731 | 31699 ft | 415 kts | 307° |
| 2026-05-06 19:16 | -33.67776 | -59.70031 | 31698 ft | 415 kts | 307° |
| 2026-05-06 19:17 | -33.64063 | -59.75304 | 31700 ft | 415 kts | 307° |
| 2026-05-06 19:17 | -33.60320 | -59.80609 | 31691 ft | 414 kts | 307° |
| 2026-05-06 19:18 | -33.56598 | -59.85877 | 31696 ft | 414 kts | 307° |
| 2026-05-06 19:18 | -33.52872 | -59.91142 | 31691 ft | 414 kts | 307° |
| 2026-05-06 19:19 | -33.49130 | -59.96423 | 31696 ft | 413 kts | 307° |
| 2026-05-06 19:19 | -33.45405 | -60.01670 | 31691 ft | 413 kts | 307° |
| 2026-05-06 19:20 | -33.41679 | -60.06914 | 31692 ft | 413 kts | 307° |
| 2026-05-06 19:20 | -33.37980 | -60.12111 | 31686 ft | 412 kts | 308° |
| 2026-05-06 19:21 | -33.34232 | -60.17368 | 31689 ft | 412 kts | 308° |
| 2026-05-06 19:21 | -33.30512 | -60.22578 | 31683 ft | 412 kts | 308° |
| 2026-05-06 19:22 | -33.26791 | -60.27783 | 31685 ft | 412 kts | 308° |
| 2026-05-06 19:22 | -33.23060 | -60.32994 | 31679 ft | 411 kts | 308° |
| 2026-05-06 19:23 | -33.19340 | -60.38182 | 31683 ft | 411 kts | 308° |
| 2026-05-06 19:23 | -33.15602 | -60.43388 | 31678 ft | 411 kts | 308° |
| 2026-05-06 19:24 | -33.11864 | -60.48587 | 31707 ft | 411 kts | 308° |
| 2026-05-06 19:24 | -33.08143 | -60.53754 | 31760 ft | 410 kts | 308° |
| 2026-05-06 19:25 | -33.04435 | -60.58897 | 31814 ft | 410 kts | 308° |
| 2026-05-06 19:25 | -33.00691 | -60.64081 | 31867 ft | 410 kts | 308° |
| 2026-05-06 19:26 | -32.96964 | -60.69234 | 31918 ft | 409 kts | 308° |
| 2026-05-06 19:26 | -32.93281 | -60.74367 | 31930 ft | 408 kts | 306° |
| 2026-05-06 19:27 | -32.89907 | -60.79763 | 31930 ft | 406 kts | 302° |
| 2026-05-06 19:27 | -32.86921 | -60.85475 | 31933 ft | 405 kts | 299° |
| 2026-05-06 19:28 | -32.84054 | -60.91251 | 31900 ft | 405 kts | 299° |
| 2026-05-06 19:28 | -32.81174 | -60.97052 | 31846 ft | 405 kts | 299° |
| 2026-05-06 19:29 | -32.78308 | -61.02829 | 31793 ft | 405 kts | 299° |
| 2026-05-06 19:29 | -32.75432 | -61.08620 | 31738 ft | 405 kts | 299° |
| 2026-05-06 19:30 | -32.72569 | -61.14382 | 31681 ft | 404 kts | 299° |
| 2026-05-06 19:30 | -32.69703 | -61.20138 | 31671 ft | 404 kts | 299° |
| 2026-05-06 19:31 | -32.66829 | -61.25905 | 31671 ft | 404 kts | 299° |
| 2026-05-06 19:31 | -32.62540 | -61.34493 | 31674 ft | 404 kts | 299° |
| 2026-05-06 19:32 | -32.59637 | -61.40293 | 31672 ft | 404 kts | 299° |
| 2026-05-06 19:32 | -32.57258 | -61.45040 | 31672 ft | 403 kts | 300° |
| 2026-05-06 19:33 | -32.53902 | -61.51727 | 31672 ft | 403 kts | 300° |
| 2026-05-06 19:33 | -32.51036 | -61.57426 | 31668 ft | 403 kts | 300° |
| 2026-05-06 19:34 | -32.48172 | -61.63113 | 31670 ft | 403 kts | 300° |
| 2026-05-06 19:34 | -32.45289 | -61.68830 | 31664 ft | 403 kts | 300° |
| 2026-05-06 19:35 | -32.42410 | -61.74527 | 31664 ft | 402 kts | 300° |
| 2026-05-06 19:35 | -32.39545 | -61.80191 | 31665 ft | 402 kts | 300° |
| 2026-05-06 19:36 | -32.37145 | -61.84928 | 31662 ft | 402 kts | 300° |
| 2026-05-06 19:36 | -32.33794 | -61.91532 | 31664 ft | 402 kts | 300° |
| 2026-05-06 19:37 | -32.31394 | -61.96262 | 31660 ft | 402 kts | 300° |
| 2026-05-06 19:37 | -32.28506 | -62.01944 | 31659 ft | 401 kts | 300° |
| 2026-05-06 19:38 | -32.25625 | -62.07603 | 31659 ft | 401 kts | 300° |
| 2026-05-06 19:38 | -32.22745 | -62.13252 | 31660 ft | 401 kts | 300° |
| 2026-05-06 19:39 | -32.19862 | -62.18898 | 31660 ft | 401 kts | 300° |
| 2026-05-06 19:39 | -32.16977 | -62.24539 | 31658 ft | 401 kts | 300° |
| 2026-05-06 19:40 | -32.14083 | -62.30188 | 31661 ft | 400 kts | 300° |
| 2026-05-06 19:40 | -32.11208 | -62.35791 | 31617 ft | 401 kts | 300° |
| 2026-05-06 19:41 | -32.09754 | -62.38621 | 31360 ft | 400 kts | 300° |
| 2026-05-06 19:41 | -32.08334 | -62.41383 | 31102 ft | 399 kts | 300° |
| 2026-05-06 19:41 | -32.06886 | -62.44200 | 30717 ft | 398 kts | 300° |
| 2026-05-06 19:41 | -32.05457 | -62.46977 | 30118 ft | 399 kts | 300° |
| 2026-05-06 19:42 | -32.04008 | -62.49791 | 29325 ft | 401 kts | 300° |
| 2026-05-06 19:42 | -32.02563 | -62.52592 | 28478 ft | 404 kts | 301° |
| 2026-05-06 19:42 | -32.01092 | -62.55441 | 27727 ft | 404 kts | 301° |
| 2026-05-06 19:42 | -31.99628 | -62.58273 | 27180 ft | 400 kts | 300° |
| 2026-05-06 19:43 | -31.98195 | -62.61045 | 26665 ft | 397 kts | 300° |
| 2026-05-06 19:43 | -31.96759 | -62.63822 | 26159 ft | 393 kts | 300° |
| 2026-05-06 19:43 | -31.95331 | -62.66580 | 25602 ft | 391 kts | 300° |
| 2026-05-06 19:43 | -31.93927 | -62.69291 | 25108 ft | 388 kts | 300° |
| 2026-05-06 19:44 | -31.92522 | -62.72002 | 24638 ft | 385 kts | 300° |
| 2026-05-06 19:44 | -31.91141 | -62.74665 | 24179 ft | 383 kts | 300° |
| 2026-05-06 19:44 | -31.89745 | -62.77355 | 23726 ft | 380 kts | 300° |
| 2026-05-06 19:44 | -31.88370 | -62.80003 | 23263 ft | 378 kts | 300° |
| 2026-05-06 19:45 | -31.86994 | -62.82653 | 22749 ft | 377 kts | 300° |
| 2026-05-06 19:45 | -31.85624 | -62.85287 | 22292 ft | 373 kts | 300° |
| 2026-05-06 19:45 | -31.84287 | -62.87856 | 21850 ft | 370 kts | 300° |
| 2026-05-06 19:45 | -31.82950 | -62.90424 | 21422 ft | 367 kts | 300° |
| 2026-05-06 19:46 | -31.81615 | -62.92986 | 21018 ft | 364 kts | 300° |
| 2026-05-06 19:46 | -31.80289 | -62.95530 | 20608 ft | 362 kts | 300° |
| 2026-05-06 19:46 | -31.78983 | -62.98034 | 20202 ft | 360 kts | 300° |
| 2026-05-06 19:46 | -31.77666 | -63.00556 | 19785 ft | 359 kts | 300° |
| 2026-05-06 19:47 | -31.76353 | -63.03068 | 19368 ft | 357 kts | 300° |
| 2026-05-06 19:47 | -31.75069 | -63.05526 | 18967 ft | 356 kts | 300° |
| 2026-05-06 19:47 | -31.73765 | -63.08020 | 18564 ft | 354 kts | 300° |
| 2026-05-06 19:47 | -31.72473 | -63.10488 | 18163 ft | 353 kts | 300° |
| 2026-05-06 19:48 | -31.71198 | -63.12920 | 17729 ft | 351 kts | 300° |
| 2026-05-06 19:48 | -31.69916 | -63.15365 | 17313 ft | 350 kts | 300° |
| 2026-05-06 19:48 | -31.68637 | -63.17804 | 16905 ft | 348 kts | 300° |
| 2026-05-06 19:48 | -31.67383 | -63.20193 | 16532 ft | 346 kts | 300° |
| 2026-05-06 19:49 | -31.66178 | -63.22645 | 16125 ft | 343 kts | 297° |
| 2026-05-06 19:49 | -31.65048 | -63.25092 | 15719 ft | 342 kts | 297° |
| 2026-05-06 19:49 | -31.63904 | -63.27569 | 15287 ft | 340 kts | 297° |
| 2026-05-06 19:49 | -31.62785 | -63.29993 | 14887 ft | 339 kts | 297° |
| 2026-05-06 19:50 | -31.61657 | -63.32434 | 14489 ft | 337 kts | 297° |
| 2026-05-06 19:50 | -31.60535 | -63.34863 | 14068 ft | 336 kts | 297° |
| 2026-05-06 19:50 | -31.59432 | -63.37247 | 13640 ft | 335 kts | 297° |
| 2026-05-06 19:50 | -31.58315 | -63.39660 | 13191 ft | 334 kts | 297° |
| 2026-05-06 19:51 | -31.57201 | -63.42069 | 12743 ft | 333 kts | 297° |
| 2026-05-06 19:51 | -31.56108 | -63.44430 | 12274 ft | 331 kts | 297° |
| 2026-05-06 19:51 | -31.55008 | -63.46805 | 11837 ft | 330 kts | 297° |
| 2026-05-06 19:51 | -31.53918 | -63.49156 | 11398 ft | 329 kts | 297° |
| 2026-05-06 19:52 | -31.52818 | -63.51525 | 10960 ft | 327 kts | 297° |
| 2026-05-06 19:52 | -31.51755 | -63.53814 | 10814 ft | 315 kts | 297° |
| 2026-05-06 19:52 | -31.50720 | -63.56039 | 10698 ft | 302 kts | 297° |
| 2026-05-06 19:52 | -31.49730 | -63.58166 | 10558 ft | 291 kts | 297° |
| 2026-05-06 19:53 | -31.48788 | -63.60190 | 10451 ft | 279 kts | 297° |
| 2026-05-06 19:53 | -31.47874 | -63.62151 | 10332 ft | 268 kts | 297° |
| 2026-05-06 19:53 | -31.47007 | -63.64010 | 10229 ft | 257 kts | 297° |
| 2026-05-06 19:53 | -31.46159 | -63.65831 | 10142 ft | 249 kts | 297° |
| 2026-05-06 19:54 | -31.45331 | -63.67609 | 10061 ft | 246 kts | 297° |
| 2026-05-06 19:54 | -31.44514 | -63.69363 | 9825 ft | 246 kts | 297° |
| 2026-05-06 19:54 | -31.43808 | -63.71233 | 9485 ft | 247 kts | 286° |
| 2026-05-06 19:54 | -31.43486 | -63.73189 | 9144 ft | 247 kts | 275° |
| 2026-05-06 19:55 | -31.43444 | -63.75217 | 8829 ft | 247 kts | 272° |
| 2026-05-06 19:55 | -31.43449 | -63.77212 | 8541 ft | 246 kts | 271° |
| 2026-05-06 19:55 | -31.43457 | -63.79229 | 8242 ft | 245 kts | 271° |
| 2026-05-06 19:55 | -31.43464 | -63.81197 | 7958 ft | 244 kts | 271° |
| 2026-05-06 19:56 | -31.43469 | -63.83202 | 7671 ft | 243 kts | 271° |
| 2026-05-06 19:56 | -31.43476 | -63.85181 | 7385 ft | 243 kts | 271° |
| 2026-05-06 19:56 | -31.43480 | -63.87167 | 7091 ft | 243 kts | 271° |
| 2026-05-06 19:56 | -31.43483 | -63.89137 | 6802 ft | 244 kts | 271° |
| 2026-05-06 19:57 | -31.43486 | -63.91143 | 6501 ft | 244 kts | 271° |
| 2026-05-06 19:57 | -31.43489 | -63.93142 | 6215 ft | 245 kts | 271° |
| 2026-05-06 19:57 | -31.43493 | -63.95133 | 5915 ft | 246 kts | 271° |
| 2026-05-06 19:57 | -31.43498 | -63.97153 | 5606 ft | 248 kts | 272° |
| 2026-05-06 19:58 | -31.43504 | -63.99185 | 5286 ft | 248 kts | 273° |
| 2026-05-06 19:58 | -31.43507 | -64.01166 | 5208 ft | 237 kts | 273° |
| 2026-05-06 19:58 | -31.43506 | -64.03059 | 5123 ft | 227 kts | 273° |
| 2026-05-06 19:58 | -31.43509 | -64.04888 | 5035 ft | 225 kts | 274° |
| 2026-05-06 19:59 | -31.43508 | -64.06736 | 4783 ft | 227 kts | 274° |
| 2026-05-06 19:59 | -31.43504 | -64.08589 | 4506 ft | 229 kts | 274° |
| 2026-05-06 19:59 | -31.43505 | -64.10478 | 4224 ft | 230 kts | 274° |
| 2026-05-06 19:59 | -31.43505 | -64.12294 | 4174 ft | 219 kts | 274° |
| 2026-05-06 20:00 | -31.43505 | -64.14099 | 4087 ft | 218 kts | 275° |
| 2026-05-06 20:00 | -31.43460 | -64.15844 | 3925 ft | 214 kts | 286° |
| 2026-05-06 20:00 | -31.42746 | -64.17258 | 3705 ft | 199 kts | 323° |
| 2026-05-06 20:00 | -31.41574 | -64.18091 | 3449 ft | 194 kts | 333° |
| 2026-05-06 20:01 | -31.40382 | -64.18808 | 3174 ft | 189 kts | 334° |
| 2026-05-06 20:01 | -31.39249 | -64.19512 | 2924 ft | 183 kts | 333° |
| 2026-05-06 20:01 | -31.38144 | -64.20230 | 2698 ft | 176 kts | 333° |
| 2026-05-06 20:01 | -31.37053 | -64.20757 | 2440 ft | 168 kts | 353° |
| 2026-05-06 20:02 | -31.35900 | -64.20813 | 2160 ft | 158 kts | 0° |
| 2026-05-06 20:02 | -31.34828 | -64.20812 | 1990 ft | 152 kts | 0° |
| 2026-05-06 20:02 | -31.33769 | -64.20775 | 1850 ft | 151 kts | 359° |
| 2026-05-06 20:02 | -31.32731 | -64.20805 | 1688 ft | 149 kts | 358° |
| 2026-05-06 20:03 | -31.31702 | -64.20825 | 1571 ft | 143 kts | 359° |
| 2026-05-06 20:03 | -31.30893 | -64.20836 | 1568 ft | 86 kts | 358° |
| 2026-05-06 20:03 | -31.30460 | -64.20849 | 1570 ft | 39 kts | 360° |
| 2026-05-06 20:03 | -31.30318 | -64.20850 | 1571 ft | 15 kts | 360° |
| 2026-05-06 20:04 | -31.30203 | -64.20850 | 1571 ft | 18 kts | 360° |
| 2026-05-06 20:04 | -31.30074 | -64.20850 | 1570 ft | 20 kts | 0° |
| 2026-05-06 20:04 | -31.29929 | -64.20850 | 1570 ft | 21 kts | 0° |
| 2026-05-06 20:04 | -31.29793 | -64.20851 | 1570 ft | 12 kts | 359° |
| 2026-05-06 20:05 | -31.29719 | -64.20853 | 1569 ft | 8 kts | 354° |
| 2026-05-06 20:05 | -31.29662 | -64.20879 | 1569 ft | 0 kts | 334° |
| 2026-05-06 20:05 | -31.29655 | -64.20883 | 1569 ft | 2 kts | 335° |
| 2026-05-06 20:05 | -31.29646 | -64.20884 | 1569 ft | 1 kts | 22° |
| 2026-05-06 20:06 | -31.29643 | -64.20880 | 1569 ft | 1 kts | 52° |
| 2026-05-06 20:06 | -31.29643 | -64.20871 | 1569 ft | 3 kts | 106° |
| 2026-05-06 20:06 | -31.29669 | -64.20863 | 1569 ft | 6 kts | 173° |
| 2026-05-06 20:06 | -31.29723 | -64.20855 | 1569 ft | 9 kts | 173° |
| 2026-05-06 20:07 | -31.29794 | -64.20851 | 1570 ft | 11 kts | 182° |
| 2026-05-06 20:07 | -31.29883 | -64.20856 | 1570 ft | 14 kts | 183° |
| 2026-05-06 20:07 | -31.29990 | -64.20859 | 1570 ft | 17 kts | 179° |
| 2026-05-06 20:07 | -31.30119 | -64.20855 | 1570 ft | 20 kts | 178° |
| 2026-05-06 20:08 | -31.30264 | -64.20849 | 1571 ft | 22 kts | 178° |
| 2026-05-06 20:08 | -31.30424 | -64.20843 | 1570 ft | 24 kts | 179° |
| 2026-05-06 20:08 | -31.30603 | -64.20840 | 1569 ft | 26 kts | 179° |
| 2026-05-06 20:08 | -31.30791 | -64.20837 | 1569 ft | 28 kts | 179° |
| 2026-05-06 20:09 | -31.30994 | -64.20836 | 1568 ft | 29 kts | 179° |
| 2026-05-06 20:09 | -31.31198 | -64.20834 | 1569 ft | 25 kts | 179° |
| 2026-05-06 20:09 | -31.31354 | -64.20832 | 1570 ft | 14 kts | 179° |
| 2026-05-06 20:09 | -31.31427 | -64.20841 | 1570 ft | 11 kts | 203° |
| 2026-05-06 20:10 | -31.31470 | -64.20894 | 1570 ft | 8 kts | 250° |
| 2026-05-06 20:10 | -31.31469 | -64.20973 | 1570 ft | 11 kts | 270° |
| 2026-05-06 20:10 | -31.31471 | -64.21039 | 1569 ft | 7 kts | 267° |
| 2026-05-06 20:10 | -31.31472 | -64.21097 | 1569 ft | 5 kts | 266° |
| 2026-05-06 20:11 | -31.31478 | -64.21142 | 1569 ft | 2 kts | 257° |
| 2026-05-06 20:11 | -31.31483 | -64.21165 | 1569 ft | 0 kts | 257° |